Time;durP1;ratioP1;P1;durP2;ratioP2;P2;SDS_P1;SDS_P2;PMS_P1;PMS_P2;Temp;Humidity;BMP_temperature;BMP_pressure;BME280_temperature;BME280_humidity;BME280_pressure;Samples;Min_cycle;Max_cycle;Signal;HPM_P1;HPM_P2
2022/05/30 00:00:20;;;;;;;6.78;3.00;;;;;;;12.69;54.13;100665.28;687077;28;1278;-76
2022/05/30 00:00:41;;;;;;;6.68;2.90;;;;;;;12.65;53.95;100660.88;688884;28;863;-76
2022/05/30 00:01:10;;;;;;;4.47;2.70;;;;;;;12.76;54.14;100677.63;688674;28;1136;-76
2022/05/30 00:01:30;;;;;;;4.88;2.60;;;;;;;12.68;53.73;100653.06;687537;28;1334;-77
2022/05/30 00:01:51;;;;;;;5.40;2.70;;;;;;;12.66;53.98;100660.88;682724;29;1184;-76
2022/05/30 00:02:12;;;;;;;6.17;2.80;;;;;;;12.69;54.03;100663.56;684277;28;1612;-76
2022/05/30 00:02:34;;;;;;;6.63;2.88;;;;;;;12.69;54.01;100662.66;684740;28;1540;-76
2022/05/30 00:02:54;;;;;;;5.75;2.80;;;;;;;12.68;54.04;100660.91;682686;29;1205;-77
2022/05/30 00:03:15;;;;;;;4.07;2.40;;;;;;;12.65;54.34;100666.13;685100;28;1198;-77
2022/05/30 00:03:36;;;;;;;4.87;2.50;;;;;;;12.60;54.24;100659.03;688258;28;1427;-77
2022/05/30 00:03:58;;;;;;;5.55;2.65;;;;;;;12.59;54.14;100654.66;688123;28;1407;-76
2022/05/30 00:04:18;;;;;;;8.20;3.00;;;;;;;12.61;54.34;100663.41;682946;28;1203;-76
2022/05/30 00:04:39;;;;;;;7.88;3.05;;;;;;;12.64;54.33;100661.72;685472;28;1080;-76
2022/05/30 00:05:00;;;;;;;9.30;3.00;;;;;;;12.63;53.96;100666.06;687956;28;1240;-76
2022/05/30 00:05:23;;;;;;;9.10;2.92;;;;;;;12.56;54.17;100646.78;684982;28;1342;-76
2022/05/30 00:05:46;;;;;;;8.80;3.00;;;;;;;12.60;54.32;100651.19;682688;29;1911;-76
2022/05/30 00:06:12;;;;;;;6.90;2.90;;;;;;;12.67;54.25;100667.00;682730;29;1062;-76
2022/05/30 00:06:33;;;;;;;5.65;2.80;;;;;;;12.68;54.23;100663.53;682751;29;1202;-76
2022/05/30 00:06:54;;;;;;;6.15;2.80;;;;;;;12.64;54.38;100656.50;688148;28;1406;-77
2022/05/30 00:07:14;;;;;;;8.33;3.00;;;;;;;12.63;54.16;100654.72;688014;28;1311;-77
2022/05/30 00:07:36;;;;;;;8.50;3.25;;;;;;;12.68;54.31;100660.91;685348;28;829;-77
2022/05/30 00:07:59;;;;;;;9.20;3.70;;;;;;;12.67;54.28;100656.53;688069;28;1230;-77
2022/05/30 00:08:19;;;;;;;9.20;3.55;;;;;;;12.65;54.23;100653.88;689225;28;1090;-77
2022/05/30 00:08:40;;;;;;;10.20;3.40;;;;;;;12.63;54.11;100655.59;686167;28;1256;-77
2022/05/30 00:09:02;;;;;;;9.25;3.58;;;;;;;12.70;54.13;100667.06;688261;28;800;-76
2022/05/30 00:09:23;;;;;;;7.97;3.65;;;;;;;12.66;54.25;100654.78;688159;28;1632;-76
2022/05/30 00:09:48;;;;;;;9.63;3.73;;;;;;;12.65;54.09;100653.03;691035;28;1458;-76
2022/05/30 00:10:10;;;;;;;8.15;3.00;;;;;;;12.68;54.15;100658.31;690830;28;1171;-76
2022/05/30 00:10:31;;;;;;;7.15;2.97;;;;;;;12.65;54.18;100658.25;686208;28;1927;-76
2022/05/30 00:10:52;;;;;;;6.40;2.88;;;;;;;12.72;54.17;100674.09;685412;28;847;-76
2022/05/30 00:11:15;;;;;;;5.70;2.80;;;;;;;12.60;54.46;100647.72;685089;28;1328;-77
2022/05/30 00:11:36;;;;;;;7.47;2.80;;;;;;;12.64;54.24;100657.34;688268;28;757;-77
2022/05/30 00:11:56;;;;;;;7.50;2.90;;;;;;;12.62;54.57;100659.06;690728;28;1137;-76
2022/05/30 00:12:17;;;;;;;8.43;2.90;;;;;;;12.66;54.51;100662.63;690509;28;1116;-76
2022/05/30 00:12:38;;;;;;;6.97;3.08;;;;;;;12.67;54.37;100667.00;690570;28;1761;-76
2022/05/30 00:12:59;;;;;;;6.88;3.13;;;;;;;12.63;54.55;100659.94;685286;28;1229;-76
2022/05/30 00:13:19;;;;;;;6.10;3.13;;;;;;;12.63;54.74;100652.09;683757;28;1128;-76
2022/05/30 00:13:41;;;;;;;5.93;3.05;;;;;;;12.67;54.63;100664.41;682920;29;832;-76
2022/05/30 00:14:02;;;;;;;8.18;3.13;;;;;;;12.64;54.44;100661.72;682544;29;1673;-76
2022/05/30 00:14:22;;;;;;;8.57;3.10;;;;;;;12.60;54.78;100652.94;682657;29;1146;-77
2022/05/30 00:14:45;;;;;;;9.47;3.10;;;;;;;12.60;54.76;100655.56;685453;28;1053;-76
2022/05/30 00:15:08;;;;;;;8.23;3.10;;;;;;;12.64;54.64;100662.59;685352;28;1050;-76
2022/05/30 00:15:29;;;;;;;8.70;3.00;;;;;;;12.56;54.46;100654.63;682419;29;1251;-76
2022/05/30 00:15:50;;;;;;;7.60;3.10;;;;;;;12.65;54.63;100671.34;682746;28;1267;-76
2022/05/30 00:16:16;;;;;;;8.25;3.17;;;;;;;12.61;54.59;100663.41;687821;28;1163;-76
2022/05/30 00:16:37;;;;;;;7.88;3.42;;;;;;;12.61;54.65;100660.81;688084;28;2055;-76
2022/05/30 00:16:58;;;;;;;6.28;3.33;;;;;;;12.60;54.32;100658.19;687893;28;1249;-77
2022/05/30 00:17:18;;;;;;;7.03;3.40;;;;;;;12.56;54.43;100652.00;690300;28;1248;-76
2022/05/30 00:17:39;;;;;;;7.88;3.47;;;;;;;12.54;54.43;100651.06;685405;28;840;-76
2022/05/30 00:17:59;;;;;;;9.60;3.50;;;;;;;12.58;54.39;100658.13;682638;29;1047;-76
2022/05/30 00:18:20;;;;;;;9.25;3.40;;;;;;;12.59;54.42;100659.91;682243;29;1435;-77
2022/05/30 00:18:41;;;;;;;9.40;3.47;;;;;;;12.52;54.34;100650.16;685370;28;1293;-77
2022/05/30 00:19:02;;;;;;;8.48;3.55;;;;;;;12.57;54.35;100659.00;685403;28;1103;-77
2022/05/30 00:19:23;;;;;;;9.60;3.70;;;;;;;12.57;54.45;100653.75;689695;28;1086;-76
2022/05/30 00:19:44;;;;;;;8.15;3.38;;;;;;;12.57;54.28;100661.63;687633;28;1367;-76
2022/05/30 00:20:06;;;;;;;7.75;3.20;;;;;;;12.59;54.27;100659.00;687821;28;1473;-77
2022/05/30 00:20:26;;;;;;;6.40;3.08;;;;;;;12.58;54.41;100659.88;690670;28;1194;-76
2022/05/30 00:20:47;;;;;;;4.83;3.10;;;;;;;12.50;54.47;100644.03;688038;28;1224;-76
2022/05/30 00:21:08;;;;;;;6.97;3.50;;;;;;;12.53;54.34;100645.84;685377;28;1069;-76
2022/05/30 00:21:28;;;;;;;9.02;3.67;;;;;;;12.47;54.36;100644.84;685295;28;1235;-76
2022/05/30 00:21:49;;;;;;;9.00;3.50;;;;;;;12.50;54.33;100658.84;682793;29;1380;-76
2022/05/30 00:22:14;;;;;;;7.00;3.10;;;;;;;12.56;54.58;100667.72;685277;28;1231;-76
2022/05/30 00:22:34;;;;;;;6.57;2.90;;;;;;;12.50;54.28;100657.13;687524;28;1950;-76
2022/05/30 00:22:55;;;;;;;6.53;2.90;;;;;;;12.50;54.41;100662.34;690657;28;1053;-77
2022/05/30 00:23:15;;;;;;;7.70;3.00;;;;;;;12.46;54.46;100655.28;685662;28;1318;-77
2022/05/30 00:23:36;;;;;;;9.15;3.47;;;;;;;12.50;54.41;100664.97;686459;28;1562;-76
2022/05/30 00:23:57;;;;;;;10.60;3.40;;;;;;;12.41;54.43;100647.34;690804;28;823;-77
2022/05/30 00:24:17;;;;;;;8.57;3.27;;;;;;;12.45;54.42;100664.00;687890;28;1087;-76
2022/05/30 00:24:38;;;;;;;6.22;2.80;;;;;;;12.46;54.49;100652.66;688093;28;864;-76
2022/05/30 00:24:59;;;;;;;4.60;2.70;;;;;;;12.46;54.17;100660.53;685496;28;769;-76
2022/05/30 00:25:20;;;;;;;4.35;2.80;;;;;;;12.44;54.04;100654.38;686900;28;1220;-76
2022/05/30 00:25:42;;;;;;;6.28;3.00;;;;;;;12.47;54.47;100659.66;685456;28;1982;-77
2022/05/30 00:26:07;;;;;;;7.35;3.22;;;;;;;12.40;54.56;100648.22;689945;28;1197;-77
2022/05/30 00:26:28;;;;;;;7.32;3.20;;;;;;;12.39;54.26;100645.56;686699;28;1119;-76
2022/05/30 00:26:48;;;;;;;5.60;3.20;;;;;;;12.37;54.59;100649.88;682804;29;1259;-76
2022/05/30 00:27:10;;;;;;;4.23;2.90;;;;;;;12.44;54.50;100659.63;690807;28;1008;-76
2022/05/30 00:27:31;;;;;;;5.75;2.90;;;;;;;12.40;54.55;100655.19;687841;28;1130;-76
2022/05/30 00:27:52;;;;;;;11.32;3.15;;;;;;;12.39;54.71;100653.41;682680;29;903;-76
2022/05/30 00:28:16;;;;;;;12.77;3.22;;;;;;;12.43;54.61;100652.63;683047;28;1211;-76
2022/05/30 00:28:36;;;;;;;12.32;3.63;;;;;;;12.39;54.44;100643.84;690655;28;1306;-77
2022/05/30 00:28:58;;;;;;;8.85;3.50;;;;;;;12.41;54.55;100662.19;690725;28;744;-77
2022/05/30 00:29:19;;;;;;;5.95;3.17;;;;;;;12.44;54.39;100659.63;688964;28;1294;-76
2022/05/30 00:29:40;;;;;;;5.50;2.80;;;;;;;12.37;54.39;100649.88;684755;28;1219;-76
2022/05/30 00:30:02;;;;;;;6.72;2.95;;;;;;;12.38;54.37;100643.78;682776;29;787;-76
2022/05/30 00:30:23;;;;;;;8.75;3.00;;;;;;;12.40;54.71;100652.59;687968;28;1270;-76
2022/05/30 00:30:45;;;;;;;7.70;2.92;;;;;;;12.38;54.73;100649.03;687774;28;1136;-77
2022/05/30 00:31:11;;;;;;;7.68;3.13;;;;;;;12.39;54.49;100643.84;687830;28;1557;-76
2022/05/30 00:31:33;;;;;;;8.20;3.20;;;;;;;12.48;54.32;100664.94;687820;28;1836;-76
2022/05/30 00:31:54;;;;;;;8.07;3.00;;;;;;;12.49;54.38;100660.59;693406;28;1331;-77
2022/05/30 00:32:14;;;;;;;5.93;2.50;;;;;;;12.41;54.61;100652.59;685132;28;1830;-77
2022/05/30 00:32:35;;;;;;;5.28;2.60;;;;;;;12.38;54.69;100643.78;687586;28;1256;-76
2022/05/30 00:32:55;;;;;;;5.68;2.60;;;;;;;12.40;54.56;100647.34;687852;28;1956;-76
2022/05/30 00:33:18;;;;;;;7.40;2.87;;;;;;;12.42;54.41;100651.72;688059;28;1379;-76
2022/05/30 00:33:41;;;;;;;8.30;3.20;;;;;;;12.39;54.45;100648.16;685539;28;847;-76
2022/05/30 00:34:02;;;;;;;7.10;3.10;;;;;;;12.37;54.76;100639.41;677241;29;1102;-77
2022/05/30 00:34:23;;;;;;;7.32;3.17;;;;;;;12.38;54.59;100639.47;685967;28;1342;-76
2022/05/30 00:34:44;;;;;;;8.70;3.05;;;;;;;12.45;54.81;100656.16;687907;28;1312;-76
2022/05/30 00:35:06;;;;;;;7.65;3.03;;;;;;;12.48;54.63;100656.22;687679;28;1071;-77
2022/05/30 00:35:27;;;;;;;8.52;2.90;;;;;;;12.42;54.70;100649.13;684665;28;1398;-76
2022/05/30 00:35:48;;;;;;;5.97;2.60;;;;;;;12.39;54.61;100642.94;685268;28;1235;-76
2022/05/30 00:36:09;;;;;;;6.45;2.70;;;;;;;12.38;54.62;100643.78;679869;29;954;-77
2022/05/30 00:36:30;;;;;;;5.88;2.58;;;;;;;12.42;54.90;100656.97;679976;29;1016;-76
2022/05/30 00:36:52;;;;;;;6.50;2.60;;;;;;;12.39;54.93;100646.44;682628;28;1375;-76
2022/05/30 00:37:12;;;;;;;8.30;2.90;;;;;;;12.36;54.59;100635.03;679655;29;1536;-77
2022/05/30 00:37:33;;;;;;;8.02;3.17;;;;;;;12.39;54.74;100650.78;682800;29;797;-76
2022/05/30 00:37:54;;;;;;;8.10;3.20;;;;;;;12.37;54.88;100642.94;687554;28;1514;-77
2022/05/30 00:38:14;;;;;;;6.00;2.90;;;;;;;12.42;54.77;100654.34;685024;28;1277;-77
2022/05/30 00:38:35;;;;;;;5.65;2.80;;;;;;;12.38;54.90;100649.03;683990;28;1203;-76
2022/05/30 00:38:56;;;;;;;6.60;3.10;;;;;;;12.39;54.77;100649.06;682662;29;1112;-76
2022/05/30 00:39:16;;;;;;;8.40;3.20;;;;;;;12.38;55.19;100649.03;685184;28;1144;-76
2022/05/30 00:39:37;;;;;;;7.35;3.10;;;;;;;12.37;54.99;100647.28;682258;29;1165;-77
2022/05/30 00:39:58;;;;;;;8.15;2.97;;;;;;;12.45;55.08;100662.28;682617;29;1258;-76
2022/05/30 00:40:19;;;;;;;6.93;2.90;;;;;;;12.36;54.94;100642.91;680630;28;1150;-76
2022/05/30 00:40:41;;;;;;;8.07;3.00;;;;;;;12.38;54.95;100649.03;685460;28;836;-76
2022/05/30 00:41:02;;;;;;;4.75;2.83;;;;;;;12.39;55.05;100641.22;682691;29;993;-76
2022/05/30 00:41:24;;;;;;;5.70;3.03;;;;;;;12.36;54.99;100640.28;690761;28;1147;-76
2022/05/30 00:41:44;;;;;;;5.47;3.17;;;;;;;12.40;54.88;100653.44;685376;28;1244;-76
2022/05/30 00:42:10;;;;;;;6.13;3.20;;;;;;;12.35;54.75;100649.84;687881;28;1075;-77
2022/05/30 00:42:31;;;;;;;5.78;2.92;;;;;;;12.43;55.21;100652.63;688081;28;1241;-76
2022/05/30 00:42:52;;;;;;;6.10;2.97;;;;;;;12.38;55.04;100638.56;685208;28;1828;-76
2022/05/30 00:43:28;;;;;;;5.57;3.15;;;;;;;12.41;55.06;100649.09;685340;28;1155;-76
2022/05/30 00:43:49;;;;;;;7.18;3.15;;;;;;;12.33;55.09;100641.09;686587;28;1039;-76
2022/05/30 00:44:10;;;;;;;8.17;3.00;;;;;;;12.38;54.93;100644.69;687924;28;1060;-76
2022/05/30 00:44:31;;;;;;;8.38;3.08;;;;;;;12.36;54.92;100645.50;685186;28;1093;-76
2022/05/30 00:44:52;;;;;;;6.30;2.90;;;;;;;12.39;55.07;100650.78;682493;28;1503;-76
2022/05/30 00:45:12;;;;;;;6.05;2.75;;;;;;;12.37;55.15;100648.16;687736;28;1851;-76
2022/05/30 00:45:33;;;;;;;6.20;2.53;;;;;;;12.43;55.07;100644.78;679937;29;1907;-76
2022/05/30 00:45:57;;;;;;;8.52;2.80;;;;;;;12.39;55.06;100645.56;687281;28;1741;-76
2022/05/30 00:46:18;;;;;;;7.75;2.80;;;;;;;12.37;55.07;100642.94;687948;28;1024;-76
2022/05/30 00:46:39;;;;;;;7.05;2.60;;;;;;;12.34;55.03;100641.13;685114;28;1382;-76
2022/05/30 00:46:59;;;;;;;6.18;2.65;;;;;;;12.31;55.04;100633.22;685325;28;752;-76
2022/05/30 00:47:21;;;;;;;5.67;2.80;;;;;;;12.32;54.82;100637.63;682492;29;1200;-77
2022/05/30 00:47:43;;;;;;;6.40;2.88;;;;;;;12.34;55.22;100643.75;688020;28;1647;-76
2022/05/30 00:48:03;;;;;;;9.10;3.10;;;;;;;12.33;55.04;100641.09;693352;28;1059;-76
2022/05/30 00:48:31;;;;;;;10.07;3.10;;;;;;;12.30;54.96;100636.69;693489;28;1287;-76
2022/05/30 00:49:06;;;;;;;8.73;2.80;;;;;;;12.30;55.13;100639.31;690685;28;882;-76
2022/05/30 00:49:27;;;;;;;7.25;2.72;;;;;;;12.30;55.11;100647.16;679853;28;1316;-76
2022/05/30 00:49:49;;;;;;;6.57;2.70;;;;;;;12.37;55.14;100653.41;687728;28;866;-76
2022/05/30 00:50:10;;;;;;;8.88;3.42;;;;;;;12.33;55.14;100646.34;682583;28;1233;-76
2022/05/30 00:50:30;;;;;;;7.40;3.50;;;;;;;12.29;55.04;100634.06;685186;28;1072;-76
2022/05/30 00:50:55;;;;;;;8.60;3.80;;;;;;;12.31;55.17;100637.59;685225;28;1274;-76
2022/05/30 00:51:21;;;;;;;7.07;2.90;;;;;;;12.25;55.55;100629.59;685153;28;1172;-76
2022/05/30 00:51:47;;;;;;;5.13;2.60;;;;;;;12.30;55.06;100641.91;682717;29;1272;-77
2022/05/30 00:52:14;;;;;;;4.78;2.80;;;;;;;12.31;55.16;100642.81;685330;28;970;-76
2022/05/30 00:52:39;;;;;;;5.90;3.10;;;;;;;12.20;55.10;100622.56;685268;28;843;-76
2022/05/30 00:52:59;;;;;;;7.13;3.10;;;;;;;12.22;54.88;100632.19;684478;28;1459;-76
2022/05/30 00:53:20;;;;;;;7.97;3.17;;;;;;;12.26;54.95;100640.13;683857;28;1149;-76
2022/05/30 00:53:44;;;;;;;8.32;3.20;;;;;;;12.21;54.90;100631.28;685492;28;704;-77
2022/05/30 00:54:08;;;;;;;7.20;3.40;;;;;;;12.26;55.01;100637.50;686888;28;1057;-76
2022/05/30 00:54:34;;;;;;;6.22;3.10;;;;;;;12.22;54.89;100640.88;684648;28;1382;-76
2022/05/30 00:55:05;;;;;;;7.13;2.97;;;;;;;12.28;54.85;100641.00;678910;29;887;-76
2022/05/30 00:55:26;;;;;;;8.88;2.75;;;;;;;12.20;54.96;100627.81;685046;28;1085;-77
2022/05/30 00:55:48;;;;;;;7.30;2.70;;;;;;;12.32;54.99;100644.56;682646;28;1320;-76
2022/05/30 00:56:11;;;;;;;7.60;3.05;;;;;;;12.28;54.96;100646.25;679982;29;1198;-76
2022/05/30 00:56:37;;;;;;;6.70;3.47;;;;;;;12.22;54.90;100627.81;684992;28;1130;-76
2022/05/30 00:57:00;;;;;;;6.78;3.45;;;;;;;12.26;55.21;100639.22;687878;28;909;-77
2022/05/30 00:57:23;;;;;;;8.40;3.50;;;;;;;12.28;55.15;100638.41;687954;28;1203;-77
2022/05/30 00:57:46;;;;;;;6.50;3.00;;;;;;;12.26;55.07;100632.25;690828;28;1510;-77
2022/05/30 00:58:08;;;;;;;6.60;3.00;;;;;;;12.29;55.07;100634.06;686539;28;1113;-77
2022/05/30 00:58:33;;;;;;;7.78;3.10;;;;;;;12.29;54.73;100634.06;690409;28;1359;-76
2022/05/30 00:58:55;;;;;;;8.20;3.38;;;;;;;12.26;55.16;100632.25;685394;28;800;-76
2022/05/30 00:59:16;;;;;;;6.82;3.05;;;;;;;12.28;54.93;100633.16;686895;28;1229;-77
2022/05/30 00:59:36;;;;;;;5.05;2.90;;;;;;;12.22;55.04;100621.72;686999;28;1375;-76
2022/05/30 01:00:01;;;;;;;7.05;3.17;;;;;;;12.22;55.00;100617.34;687778;28;907;-77
2022/05/30 01:00:25;;;;;;;8.18;3.90;;;;;;;12.30;54.73;100639.31;685061;28;1422;-76
2022/05/30 01:00:47;;;;;;;6.60;3.50;;;;;;;12.32;54.86;100640.22;682651;29;915;-77
2022/05/30 01:01:08;;;;;;;5.13;2.80;;;;;;;12.33;54.69;100635.88;685222;28;2001;-76
2022/05/30 01:01:30;;;;;;;6.18;2.75;;;;;;;12.32;54.79;100636.72;682333;28;1815;-77
2022/05/30 01:01:51;;;;;;;6.63;2.88;;;;;;;12.29;54.63;100628.81;685533;28;1126;-77
2022/05/30 01:02:11;;;;;;;7.07;2.90;;;;;;;12.37;54.91;100639.41;685071;28;1787;-76
2022/05/30 01:02:34;;;;;;;6.25;2.90;;;;;;;12.26;54.72;100629.66;679810;29;1471;-76
2022/05/30 01:06:31;;;;;;;6.25;3.20;;;;;;;12.34;54.58;100642.84;683674;28;1239;-76
2022/05/30 01:06:54;;;;;;;6.07;3.20;;;;;;;12.28;54.42;100627.06;684273;28;1509;-76
2022/05/30 01:07:15;;;;;;;6.68;3.38;;;;;;;12.31;54.47;100634.97;683091;28;1274;-76
2022/05/30 01:07:38;;;;;;;6.90;3.60;;;;;;;12.32;54.27;100636.72;685315;28;752;-77
2022/05/30 01:08:01;;;;;;;7.53;3.80;;;;;;;12.30;54.72;100647.16;685221;28;1217;-76
2022/05/30 01:08:25;;;;;;;8.30;3.35;;;;;;;12.34;54.31;100638.53;685037;28;1582;-76
2022/05/30 01:08:45;;;;;;;6.75;2.90;;;;;;;12.28;54.15;100630.56;687243;28;839;-76
2022/05/30 01:09:13;;;;;;;7.70;3.03;;;;;;;12.25;54.35;100625.28;687953;28;1012;-77
2022/05/30 01:09:44;;;;;;;6.88;3.00;;;;;;;12.28;54.35;100630.56;687342;28;1618;-77
2022/05/30 01:10:07;;;;;;;7.95;3.17;;;;;;;12.24;54.52;100628.75;685284;28;1179;-76
2022/05/30 01:10:28;;;;;;;8.52;3.30;;;;;;;12.28;54.61;100633.16;687727;28;1044;-77
2022/05/30 01:10:48;;;;;;;7.75;3.22;;;;;;;12.21;54.61;100631.28;690244;28;1485;-77
2022/05/30 01:11:09;;;;;;;6.27;3.10;;;;;;;12.31;54.34;100643.69;685173;28;1193;-76
2022/05/30 01:11:58;;;;;;;5.00;2.83;;;;;;;12.33;54.37;100647.22;685223;28;1422;-76
2022/05/30 01:12:34;;;;;;;6.30;3.10;;;;;;;12.24;54.49;100633.97;682234;28;1252;-77
2022/05/30 01:12:57;;;;;;;6.45;3.15;;;;;;;12.24;54.78;100623.50;682628;28;1026;-76
2022/05/30 01:13:17;;;;;;;7.75;3.15;;;;;;;12.19;54.81;100620.78;683998;28;1147;-77
2022/05/30 01:13:38;;;;;;;7.88;3.30;;;;;;;12.27;54.82;100638.34;689702;28;928;-76
2022/05/30 01:14:00;;;;;;;8.25;3.25;;;;;;;12.33;54.74;100643.72;687829;28;792;-77
2022/05/30 01:14:22;;;;;;;7.43;3.38;;;;;;;12.28;54.66;100635.78;695864;28;1213;-77
2022/05/30 01:14:43;;;;;;;7.40;3.30;;;;;;;12.26;54.89;100637.50;685375;28;815;-76
2022/05/30 01:15:09;;;;;;;7.93;3.30;;;;;;;12.27;54.50;100633.13;687998;28;1079;-76
2022/05/30 01:15:30;;;;;;;9.73;2.97;;;;;;;12.33;54.83;100647.22;685142;28;1186;-77
2022/05/30 01:15:51;;;;;;;8.07;2.90;;;;;;;12.25;55.01;100627.88;682178;29;1780;-76
2022/05/30 01:16:12;;;;;;;7.80;2.97;;;;;;;12.27;54.86;100636.63;682647;29;1093;-76
2022/05/30 01:16:34;;;;;;;5.85;2.90;;;;;;;12.24;55.00;100633.09;685404;28;820;-76
2022/05/30 01:16:56;;;;;;;5.88;3.00;;;;;;;12.23;54.87;100632.19;685461;28;839;-76
2022/05/30 01:17:17;;;;;;;7.50;3.00;;;;;;;12.23;54.81;100628.72;685059;28;1237;-77
2022/05/30 01:17:51;;;;;;;9.70;3.45;;;;;;;12.20;54.96;100624.28;689568;28;836;-76
2022/05/30 01:18:29;;;;;;;10.07;3.50;;;;;;;12.22;54.99;100627.81;693257;28;1086;-76
2022/05/30 01:18:55;;;;;;;6.00;2.80;;;;;;;12.27;54.89;100641.88;690670;28;1629;-76
2022/05/30 01:19:26;;;;;;;5.50;2.83;;;;;;;12.31;55.12;100650.66;687771;28;1138;-76
2022/05/30 01:20:05;;;;;;;5.53;2.90;;;;;;;12.31;54.78;100648.91;686961;28;1657;-77
2022/05/30 01:20:39;;;;;;;5.20;3.00;;;;;;;12.30;54.83;100641.91;687508;28;1187;-76
2022/05/30 01:21:36;;;;;;;5.00;3.30;;;;;;;12.30;55.11;100649.78;685168;28;1079;-77
2022/05/30 01:22:13;;;;;;;8.43;3.40;;;;;;;12.30;54.97;100646.28;684779;28;1018;-77
2022/05/30 01:22:52;;;;;;;5.93;3.00;;;;;;;12.30;55.19;100641.06;685163;28;852;-76
2022/05/30 01:23:45;;;;;;;6.57;3.10;;;;;;;12.30;55.05;100647.16;685887;28;1100;-77
2022/05/30 01:24:46;;;;;;;7.10;3.30;;;;;;;12.21;55.13;100633.91;687696;28;1634;-76
2022/05/30 01:25:49;;;;;;;8.90;4.05;;;;;;;12.22;55.10;100625.19;687768;28;1427;-77
2022/05/30 01:26:24;;;;;;;8.35;3.67;;;;;;;12.29;55.47;100645.38;689553;28;1192;-77
2022/05/30 01:27:17;;;;;;;5.20;3.33;;;;;;;12.29;55.34;100640.16;685325;28;820;-77
2022/05/30 01:27:48;;;;;;;8.45;3.47;;;;;;;12.30;55.24;100641.06;682523;29;1649;-77
2022/05/30 01:28:21;;;;;;;7.43;3.70;;;;;;;12.17;55.53;100624.25;682435;29;1265;-77
2022/05/30 01:28:55;;;;;;;9.23;3.50;;;;;;;12.19;55.41;100628.63;689489;28;851;-76
2022/05/30 01:29:29;;;;;;;8.77;3.53;;;;;;;12.20;55.50;100632.13;686604;28;1260;-77
2022/05/30 01:29:58;;;;;;;5.65;3.13;;;;;;;12.19;55.53;100631.25;682448;28;785;-77
2022/05/30 01:30:19;;;;;;;5.60;3.05;;;;;;;12.21;55.60;100631.28;683514;28;1510;-77
2022/05/30 01:30:41;;;;;;;5.10;3.00;;;;;;;12.23;55.61;100628.72;689298;28;1674;-77
2022/05/30 01:31:03;;;;;;;4.43;3.00;;;;;;;12.24;55.70;100636.59;687711;28;1246;-77
2022/05/30 01:31:25;;;;;;;4.95;3.10;;;;;;;12.28;55.67;100643.63;689880;28;1179;-77
2022/05/30 01:31:46;;;;;;;6.95;3.33;;;;;;;12.19;55.58;100622.53;687870;28;1133;-77
2022/05/30 01:32:08;;;;;;;11.30;3.70;;;;;;;12.24;55.66;100633.97;686877;28;985;-77
2022/05/30 01:32:29;;;;;;;11.55;3.70;;;;;;;12.22;55.65;100633.03;693025;28;1330;-77
2022/05/30 01:32:50;;;;;;;11.50;3.38;;;;;;;12.19;55.88;100622.53;690448;28;1657;-76
2022/05/30 01:33:11;;;;;;;8.85;3.33;;;;;;;12.18;55.48;100620.78;687587;28;1214;-77
2022/05/30 01:33:32;;;;;;;9.77;3.40;;;;;;;12.16;55.75;100617.25;687149;28;1233;-77
2022/05/30 01:33:53;;;;;;;8.75;3.60;;;;;;;12.22;55.66;100633.03;682555;29;841;-77
2022/05/30 01:34:14;;;;;;;8.70;3.60;;;;;;;12.22;55.51;100627.81;685109;28;1822;-77
2022/05/30 01:34:45;;;;;;;9.77;3.78;;;;;;;12.20;55.50;100634.75;685155;28;843;-77
2022/05/30 01:35:07;;;;;;;10.45;3.90;;;;;;;12.24;55.77;100631.38;685363;28;1617;-77
2022/05/30 01:35:33;;;;;;;9.73;3.80;;;;;;;12.23;55.72;100624.34;690347;28;1606;-77
2022/05/30 01:35:58;;;;;;;8.40;3.88;;;;;;;12.26;55.54;100633.97;687589;28;1504;-77
2022/05/30 01:36:24;;;;;;;9.77;4.43;;;;;;;12.33;55.87;100635.88;685042;28;1113;-77
2022/05/30 01:36:45;;;;;;;8.07;4.30;;;;;;;12.23;55.73;100619.09;687883;28;2223;-77
2022/05/30 01:37:06;;;;;;;6.82;3.85;;;;;;;12.29;56.13;100634.94;684497;28;1589;-77
2022/05/30 01:37:29;;;;;;;4.95;3.42;;;;;;;12.23;55.86;100619.09;682340;28;1515;-76
2022/05/30 01:37:50;;;;;;;7.30;3.70;;;;;;;12.23;55.68;100619.09;682525;29;919;-77
2022/05/30 01:38:11;;;;;;;10.02;3.90;;;;;;;12.28;55.65;100633.16;682622;28;1281;-76
2022/05/30 01:38:32;;;;;;;10.35;3.80;;;;;;;12.22;55.80;100619.97;685085;28;1177;-77
2022/05/30 01:38:54;;;;;;;8.95;3.70;;;;;;;12.25;55.89;100625.28;687786;28;1268;-77
2022/05/30 01:39:28;;;;;;;8.68;3.78;;;;;;;12.28;55.54;100627.06;690050;28;1115;-77
2022/05/30 01:39:50;;;;;;;10.68;3.95;;;;;;;12.27;55.62;100626.16;690683;28;1959;-77
2022/05/30 01:40:11;;;;;;;10.02;3.67;;;;;;;12.26;55.63;100626.13;695890;28;1767;-77
2022/05/30 01:40:32;;;;;;;9.60;3.70;;;;;;;12.26;55.81;100623.53;687963;28;1050;-77
2022/05/30 01:40:54;;;;;;;7.43;3.55;;;;;;;12.29;55.93;100624.47;684499;28;1377;-77
2022/05/30 01:41:15;;;;;;;5.72;3.60;;;;;;;12.30;55.61;100631.44;690017;28;1363;-77
2022/05/30 01:41:36;;;;;;;6.20;3.45;;;;;;;12.28;55.66;100622.69;687957;28;852;-77
2022/05/30 01:41:57;;;;;;;6.57;3.40;;;;;;;12.27;55.84;100625.28;690579;28;1034;-77
2022/05/30 01:42:18;;;;;;;5.97;3.40;;;;;;;12.28;55.64;100617.47;689944;28;1225;-77
2022/05/30 01:42:40;;;;;;;7.15;3.40;;;;;;;12.30;55.86;100625.34;690541;28;1242;-76
2022/05/30 01:43:01;;;;;;;7.47;3.38;;;;;;;12.31;55.57;100622.75;685136;28;1122;-76
2022/05/30 01:43:25;;;;;;;13.48;3.50;;;;;;;12.31;55.81;100627.97;682626;29;1194;-76
2022/05/30 01:43:53;;;;;;;13.35;3.45;;;;;;;12.29;55.84;100628.81;682565;29;921;-77
2022/05/30 01:44:14;;;;;;;8.65;3.50;;;;;;;12.33;55.83;100636.75;687033;28;1198;-77
2022/05/30 01:44:36;;;;;;;7.35;3.70;;;;;;;12.28;55.82;100622.69;687073;28;1117;-76
2022/05/30 01:44:56;;;;;;;7.25;3.80;;;;;;;12.27;55.74;100615.72;685082;28;1164;-77
2022/05/30 01:45:18;;;;;;;7.10;3.60;;;;;;;12.26;55.99;100619.19;684918;28;1274;-77
2022/05/30 01:45:38;;;;;;;8.25;3.50;;;;;;;12.28;55.94;100627.94;690596;28;1910;-76
2022/05/30 01:46:05;;;;;;;6.68;3.38;;;;;;;12.26;55.98;100632.25;687873;28;1304;-77
2022/05/30 01:46:27;;;;;;;9.02;3.80;;;;;;;12.27;55.92;100620.94;685033;28;1187;-77
2022/05/30 01:46:51;;;;;;;8.40;3.70;;;;;;;12.25;55.92;100614.81;682284;29;1305;-77
2022/05/30 01:47:12;;;;;;;7.97;3.22;;;;;;;12.26;55.93;100619.19;679808;29;1247;-77
2022/05/30 01:47:34;;;;;;;8.75;2.90;;;;;;;12.23;55.73;100613.88;682542;29;1280;-76
2022/05/30 01:47:56;;;;;;;8.60;3.05;;;;;;;12.28;55.73;100617.47;684534;28;1305;-77
2022/05/30 01:48:16;;;;;;;8.93;3.30;;;;;;;12.26;55.81;100619.19;687817;28;1738;-77
2022/05/30 01:48:37;;;;;;;7.10;3.40;;;;;;;12.29;55.71;100623.59;687812;28;768;-77
2022/05/30 01:48:59;;;;;;;8.50;3.50;;;;;;;12.28;55.97;100622.69;686835;28;2051;-77
2022/05/30 01:49:20;;;;;;;7.53;3.77;;;;;;;12.27;56.04;100630.50;684492;28;1383;-77
2022/05/30 01:49:41;;;;;;;9.00;3.75;;;;;;;12.28;55.95;100633.16;687286;28;875;-76
2022/05/30 01:50:04;;;;;;;9.07;3.97;;;;;;;12.27;55.87;100620.94;685143;28;1072;-77
2022/05/30 01:50:29;;;;;;;10.13;3.83;;;;;;;12.24;55.66;100618.28;687534;28;1969;-77
2022/05/30 01:50:57;;;;;;;9.70;3.90;;;;;;;12.26;55.83;100616.56;690411;28;1410;-77
2022/05/30 01:51:29;;;;;;;8.85;3.70;;;;;;;12.28;55.67;100627.94;683849;28;1609;-76
2022/05/30 01:52:10;;;;;;;8.05;3.45;;;;;;;12.30;55.81;100626.22;678090;29;1560;-77
2022/05/30 01:52:31;;;;;;;6.70;3.50;;;;;;;12.23;55.84;100608.63;684690;28;1063;-77
2022/05/30 01:52:53;;;;;;;6.70;3.33;;;;;;;12.27;55.47;100618.31;693027;28;1535;-76
2022/05/30 01:53:30;;;;;;;7.75;3.17;;;;;;;12.33;55.88;100628.91;684913;28;1352;-78
2022/05/30 01:54:17;;;;;;;8.13;3.60;;;;;;;12.29;55.32;100620.97;680480;29;1169;-76
2022/05/30 01:55:00;;;;;;;6.75;3.90;;;;;;;12.28;55.82;100612.22;686059;28;1607;-77
2022/05/30 01:55:40;;;;;;;7.05;3.30;;;;;;;12.31;55.72;100614.91;694294;28;946;-77
2022/05/30 01:56:04;;;;;;;7.75;3.45;;;;;;;12.34;55.56;100620.19;690406;28;1112;-77
2022/05/30 01:56:25;;;;;;;8.33;3.30;;;;;;;12.30;55.67;100620.13;685728;28;1129;-77
2022/05/30 01:56:48;;;;;;;10.15;3.53;;;;;;;12.26;55.15;100613.06;679880;29;880;-77
2022/05/30 01:57:10;;;;;;;9.45;3.50;;;;;;;12.27;55.36;100618.31;684914;28;1060;-76
2022/05/30 01:57:41;;;;;;;9.52;3.85;;;;;;;12.24;55.46;100613.03;687858;28;925;-77